createdAt,value
2018-12-03T00:01:29.038Z,6.00
2018-12-03T00:04:15.443Z,5.80
2018-12-03T00:06:44.121Z,5.63
2018-12-03T00:09:12.468Z,5.70
2018-12-03T00:11:40.784Z,5.70
2018-12-03T00:14:09.195Z,5.70
2018-12-03T00:16:37.540Z,5.17
2018-12-03T00:19:06.636Z,5.53
2018-12-03T00:21:34.989Z,5.03
2018-12-03T00:24:03.468Z,4.90
2018-12-03T00:26:31.701Z,5.10
2018-12-03T00:28:59.970Z,5.53
2018-12-03T00:31:28.827Z,4.47
2018-12-03T00:33:57.239Z,4.93
2018-12-03T00:36:25.622Z,5.40
2018-12-03T00:38:53.900Z,5.27
2018-12-03T00:41:22.239Z,5.40
2018-12-03T00:43:50.562Z,5.27
2018-12-03T00:46:18.938Z,5.33
2018-12-03T00:48:47.377Z,5.40
2018-12-03T00:51:15.706Z,5.43
2018-12-03T00:53:44.077Z,5.77
2018-12-03T00:56:12.565Z,5.73
2018-12-03T00:58:40.915Z,6.70
2018-12-03T01:01:09.379Z,6.37
2018-12-03T01:03:37.844Z,5.87
2018-12-03T01:06:06.596Z,5.80
2018-12-03T01:08:35.265Z,6.00
2018-12-03T01:11:03.509Z,5.90
2018-12-03T01:13:31.763Z,5.87
2018-12-03T01:16:00.062Z,7.73
2018-12-03T01:18:28.329Z,6.23
2018-12-03T01:20:56.648Z,5.90
2018-12-03T01:23:25.024Z,6.27
2018-12-03T01:25:53.268Z,6.50
2018-12-03T01:28:21.604Z,5.93
2018-12-03T01:30:50.052Z,5.83
2018-12-03T01:33:18.322Z,5.73
2018-12-03T01:35:46.702Z,7.10
2018-12-03T01:38:15.090Z,6.10
2018-12-03T01:40:43.421Z,5.73
2018-12-03T01:43:11.753Z,5.30
2018-12-03T01:45:40.056Z,5.60
2018-12-03T01:48:08.372Z,4.90
2018-12-03T01:50:36.628Z,4.60
2018-12-03T01:53:04.950Z,4.73
2018-12-03T01:55:33.288Z,5.13
2018-12-03T01:58:01.610Z,4.33
2018-12-03T02:00:29.864Z,4.80
2018-12-03T02:02:58.181Z,3.77
2018-12-03T02:05:26.579Z,4.10
2018-12-03T02:07:54.864Z,4.00
2018-12-03T02:10:23.220Z,3.70
2018-12-03T02:12:51.516Z,3.70
2018-12-03T02:15:19.937Z,4.20
2018-12-03T02:17:48.174Z,3.70
2018-12-03T02:20:23.381Z,3.80
2018-12-03T02:22:51.647Z,4.10
2018-12-03T02:25:19.892Z,3.37
2018-12-03T02:27:48.277Z,3.80
2018-12-03T02:30:17.978Z,4.33
2018-12-03T02:32:46.195Z,4.07
2018-12-03T02:35:14.852Z,3.80
2018-12-03T02:37:43.299Z,3.77
2018-12-03T02:40:14.845Z,4.10
2018-12-03T02:42:43.307Z,4.00
2018-12-03T02:45:12.709Z,3.80
2018-12-03T02:47:41.107Z,3.80
2018-12-03T02:50:10.683Z,3.50
2018-12-03T02:52:38.949Z,3.50
2018-12-03T02:55:09.330Z,3.60
2018-12-03T02:57:37.854Z,4.17
2018-12-03T03:00:10.342Z,4.20
2018-12-03T03:02:38.606Z,4.13
2018-12-03T03:05:09.596Z,4.57
2018-12-03T03:07:37.936Z,4.40
2018-12-03T03:10:09.401Z,4.43
2018-12-03T03:12:37.640Z,4.90
2018-12-03T03:15:08.275Z,4.40
2018-12-03T03:17:39.449Z,4.87
2018-12-03T03:20:10.378Z,4.90
2018-12-03T03:22:38.647Z,4.60
2018-12-03T03:25:08.058Z,5.03
2018-12-03T03:27:36.473Z,4.90
2018-12-03T03:30:08.386Z,4.37
2018-12-03T03:32:36.689Z,5.43
2018-12-03T03:35:05.613Z,5.27
2018-12-03T03:37:34.030Z,6.30
2018-12-03T03:40:02.363Z,6.13
2018-12-03T03:42:30.619Z,5.70
2018-12-03T03:44:58.829Z,6.40
2018-12-03T03:47:27.110Z,6.47
2018-12-03T03:49:55.490Z,6.10
2018-12-03T03:52:23.952Z,6.30
2018-12-03T03:54:52.311Z,6.27
2018-12-03T03:57:20.726Z,6.07
2018-12-03T03:59:49.223Z,6.53
2018-12-03T04:02:17.608Z,6.23
2018-12-03T04:04:46.052Z,6.33
2018-12-03T04:07:14.477Z,6.50
2018-12-03T04:09:42.910Z,7.17
2018-12-03T04:12:11.350Z,6.10
2018-12-03T04:14:52.822Z,6.90
2018-12-03T04:17:21.318Z,6.30
2018-12-03T04:19:56.330Z,7.00
2018-12-03T04:22:24.949Z,6.83
2018-12-03T04:24:53.389Z,7.37
2018-12-03T04:27:21.937Z,7.57
2018-12-03T04:29:50.719Z,7.57
2018-12-03T04:32:19.203Z,7.80
2018-12-03T04:34:47.619Z,7.83
2018-12-03T04:37:15.974Z,6.77
2018-12-03T04:39:44.401Z,6.23
2018-12-03T04:42:12.775Z,7.57
2018-12-03T04:44:41.171Z,7.30
2018-12-03T04:47:09.620Z,7.60
2018-12-03T04:49:37.955Z,7.70
2018-12-03T04:52:06.520Z,7.50
2018-12-03T04:54:34.838Z,7.77
2018-12-03T04:57:03.294Z,7.97
2018-12-03T04:59:31.699Z,7.30
2018-12-03T05:01:59.966Z,8.20
2018-12-03T05:04:28.232Z,8.33
2018-12-03T05:06:56.757Z,8.03
2018-12-03T05:09:31.652Z,7.37
2018-12-03T05:12:00.474Z,7.57
2018-12-03T05:14:29.108Z,7.33
2018-12-03T05:16:57.652Z,7.63
2018-12-03T05:19:26.471Z,7.87
2018-12-03T05:21:54.850Z,7.80
2018-12-03T05:24:29.621Z,14.93
2018-12-03T05:26:58.208Z,11.50
2018-12-03T05:29:26.522Z,10.23
2018-12-03T05:31:54.977Z,8.10
2018-12-03T05:34:23.265Z,7.50
2018-12-03T05:36:52.430Z,7.57
2018-12-03T05:39:20.913Z,6.73
2018-12-03T05:41:49.333Z,7.43
2018-12-03T05:44:17.755Z,7.50
2018-12-03T05:46:46.067Z,7.30
2018-12-03T05:49:14.353Z,7.50
2018-12-03T05:51:42.736Z,6.90
2018-12-03T05:54:11.108Z,7.40
2018-12-03T05:56:39.435Z,8.03
2018-12-03T05:59:07.964Z,7.80
2018-12-03T06:01:36.388Z,7.67
2018-12-03T06:04:04.835Z,7.57
2018-12-03T06:06:33.177Z,8.10
2018-12-03T06:09:01.621Z,7.33
2018-12-03T06:11:30.196Z,6.47
2018-12-03T06:13:58.615Z,7.07
2018-12-03T06:16:27.162Z,7.00
2018-12-03T06:18:55.709Z,7.00
2018-12-03T06:21:24.034Z,7.63
2018-12-03T06:23:52.447Z,6.30
2018-12-03T06:26:21.187Z,6.87
2018-12-03T06:28:49.511Z,6.70
2018-12-03T06:31:17.935Z,6.90
2018-12-03T06:33:46.861Z,7.43
2018-12-03T06:36:15.329Z,6.53
2018-12-03T06:38:46.834Z,7.00
2018-12-03T06:41:15.355Z,6.90
2018-12-03T06:43:44.677Z,6.70
2018-12-03T06:46:13.711Z,6.20
2018-12-03T06:48:42.252Z,6.17
2018-12-03T06:51:10.680Z,6.33
2018-12-03T06:53:39.029Z,6.63
2018-12-03T06:56:07.409Z,10.00
2018-12-03T06:58:35.859Z,34.13
2018-12-03T07:01:05.807Z,18.93
2018-12-03T07:03:34.184Z,12.73
2018-12-03T07:06:02.856Z,18.47
2018-12-03T07:08:31.275Z,14.70
2018-12-03T07:11:00.032Z,11.60
2018-12-03T07:13:29.591Z,9.63
2018-12-03T07:15:58.122Z,12.03
2018-12-03T07:18:26.800Z,11.13
2018-12-03T07:20:55.416Z,12.67
2018-12-03T07:23:23.885Z,10.13
2018-12-03T07:25:52.560Z,9.43
2018-12-03T07:28:20.932Z,9.03
2018-12-03T07:30:49.726Z,7.70
2018-12-03T07:33:18.270Z,7.67
2018-12-03T07:35:46.824Z,7.73
2018-12-03T07:38:15.510Z,7.50
2018-12-03T07:40:44.384Z,7.33
2018-12-03T07:43:12.862Z,7.20
2018-12-03T07:45:41.507Z,6.80
2018-12-03T07:48:10.080Z,6.97
2018-12-03T07:50:38.730Z,6.70
2018-12-03T07:53:07.239Z,7.13
2018-12-03T07:55:35.646Z,7.07
2018-12-03T07:58:09.201Z,8.03
2018-12-03T08:00:40.597Z,7.37
2018-12-03T08:03:09.205Z,8.03
2018-12-03T08:05:42.686Z,8.97
2018-12-03T08:08:12.357Z,7.47
2018-12-03T08:10:47.597Z,8.27
2018-12-03T08:13:23.564Z,20.00
2018-12-03T08:15:52.364Z,13.83
2018-12-03T08:18:22.117Z,12.77
2018-12-03T08:20:54.349Z,12.20
2018-12-03T08:23:28.258Z,20.83
2018-12-03T08:25:58.559Z,14.23
2018-12-03T08:28:33.682Z,10.80
2018-12-03T08:31:02.346Z,9.00
2018-12-03T08:33:33.749Z,9.50
2018-12-03T08:36:03.872Z,9.57
2018-12-03T08:38:32.643Z,8.70
2018-12-03T08:41:05.687Z,9.50
2018-12-03T08:43:34.293Z,8.57
2018-12-03T08:46:05.482Z,47.13
2018-12-03T08:48:38.407Z,28.83
2018-12-03T08:51:07.517Z,29.97
2018-12-03T08:53:35.948Z,30.03
2018-12-03T08:56:04.503Z,35.57
2018-12-03T08:58:32.931Z,61.57
2018-12-03T09:01:10.998Z,28.80
2018-12-03T09:03:44.662Z,12.23
2018-12-03T09:06:15.380Z,27.87
2018-12-03T09:08:48.071Z,47.03
2018-12-03T09:11:17.633Z,21.67
2018-12-03T09:13:46.479Z,10.30
2018-12-03T09:16:14.861Z,14.63
2018-12-03T09:18:43.228Z,19.90
2018-12-03T09:21:17.882Z,12.70
2018-12-03T09:23:51.163Z,10.07
2018-12-03T09:26:19.686Z,8.20
2018-12-03T09:28:52.128Z,6.67
2018-12-03T09:31:22.809Z,7.53
2018-12-03T09:33:57.789Z,7.83
2018-12-03T09:36:26.923Z,8.30
2018-12-03T09:39:09.892Z,18.17
2018-12-03T09:41:38.305Z,22.60
2018-12-03T09:44:08.118Z,11.73
2018-12-03T09:46:36.762Z,6.70
2018-12-03T09:49:05.137Z,5.37
2018-12-03T09:51:34.743Z,6.13
2018-12-03T09:54:09.505Z,37.70
2018-12-03T09:56:44.304Z,9.77
2018-12-03T09:59:17.187Z,6.00
2018-12-03T10:01:47.026Z,4.90
2018-12-03T10:04:17.707Z,5.60
2018-12-03T10:06:52.483Z,7.03
2018-12-03T10:09:21.081Z,4.57
2018-12-03T10:11:49.648Z,4.87
2018-12-03T10:14:19.650Z,7.90
2018-12-03T10:16:48.360Z,10.00
2018-12-03T10:19:16.833Z,6.93
2018-12-03T10:21:47.367Z,7.00
2018-12-03T10:24:16.510Z,5.57
2018-12-03T10:26:45.538Z,9.57
2018-12-03T10:29:16.205Z,7.80
2018-12-03T10:31:44.794Z,4.60
2018-12-03T10:34:16.482Z,3.93
2018-12-03T10:36:50.179Z,3.07
2018-12-03T10:39:25.980Z,3.00
2018-12-03T10:41:58.140Z,3.00
2018-12-03T10:44:27.168Z,2.80
2018-12-03T10:46:55.597Z,3.13
2018-12-03T10:49:24.078Z,3.93
2018-12-03T10:51:52.535Z,3.13
2018-12-03T10:54:20.948Z,3.23
2018-12-03T10:56:49.422Z,35.10
2018-12-03T10:59:18.024Z,9.40
2018-12-03T11:01:50.893Z,4.90
2018-12-03T11:06:29.486Z,3.40
2018-12-03T11:08:58.080Z,2.87
2018-12-03T11:11:26.587Z,2.90
2018-12-03T11:13:54.854Z,2.80
2018-12-03T11:16:35.501Z,3.00
2018-12-03T11:19:03.934Z,2.97
2018-12-03T11:21:32.436Z,2.10
2018-12-03T11:24:01.285Z,2.60
2018-12-03T11:26:42.215Z,2.23
2018-12-03T11:29:11.395Z,2.50
2018-12-03T11:31:39.892Z,3.00
2018-12-03T11:34:08.357Z,2.40
2018-12-03T11:36:44.962Z,2.77
2018-12-03T11:39:17.790Z,2.70
2018-12-03T11:41:46.274Z,2.73
2018-12-03T11:44:14.755Z,2.70
2018-12-03T11:46:43.315Z,2.10
2018-12-03T11:49:11.904Z,2.53
2018-12-03T11:51:40.338Z,2.40
2018-12-03T11:54:09.097Z,2.47
2018-12-03T11:56:37.581Z,2.43
2018-12-03T11:59:06.105Z,4.07
2018-12-03T12:01:34.590Z,4.27
2018-12-03T12:04:03.261Z,2.37
2018-12-03T12:06:31.792Z,2.00
2018-12-03T12:09:00.160Z,3.40
2018-12-03T12:11:28.735Z,3.00
2018-12-03T12:13:58.144Z,2.93
2018-12-03T12:16:26.449Z,2.50
2018-12-03T12:18:55.002Z,2.03
2018-12-03T12:21:23.620Z,2.30
2018-12-03T12:23:51.969Z,2.10
2018-12-03T12:26:20.728Z,2.50
2018-12-03T12:28:49.200Z,2.43
2018-12-03T12:31:17.630Z,2.40
2018-12-03T12:33:45.989Z,2.67
2018-12-03T12:36:14.528Z,2.73
2018-12-03T12:38:42.869Z,2.97
2018-12-03T12:41:11.274Z,2.40
2018-12-03T12:43:39.525Z,2.47
2018-12-03T12:46:10.513Z,3.43
2018-12-03T12:48:38.931Z,2.67
2018-12-03T12:51:07.376Z,3.07
2018-12-03T12:53:36.809Z,2.57
2018-12-03T12:56:05.454Z,2.40
2018-12-03T12:58:33.707Z,3.00
2018-12-03T13:01:02.191Z,3.43
2018-12-03T13:03:30.771Z,3.70
2018-12-03T13:05:59.693Z,2.53
2018-12-03T13:08:28.178Z,3.13
2018-12-03T13:11:02.936Z,3.40
2018-12-03T13:13:31.374Z,3.10
2018-12-03T13:15:59.738Z,4.43
2018-12-03T13:18:29.247Z,3.60
2018-12-03T13:20:58.122Z,4.23
2018-12-03T13:23:26.899Z,3.57
2018-12-03T13:25:55.434Z,3.73
2018-12-03T13:28:24.144Z,3.50
2018-12-03T13:30:52.596Z,3.30
2018-12-03T13:33:20.906Z,3.37
2018-12-03T13:35:49.436Z,5.23
2018-12-03T13:38:17.838Z,3.47
2018-12-03T13:40:46.216Z,9.63
2018-12-03T13:43:14.697Z,11.87
2018-12-03T13:45:43.284Z,13.93
2018-12-03T13:48:11.843Z,15.60
2018-12-03T13:50:40.362Z,6.93
2018-12-03T13:53:09.364Z,5.47
2018-12-03T13:55:37.928Z,4.60
2018-12-03T13:58:06.804Z,4.60
2018-12-03T14:00:35.216Z,4.00
2018-12-03T14:03:10.918Z,4.50
2018-12-03T14:05:45.733Z,4.10
2018-12-03T14:08:43.210Z,4.03
2018-12-03T14:11:36.399Z,8.90
2018-12-03T14:16:15.539Z,22.30
2018-12-03T14:18:48.348Z,10.67
2018-12-03T14:21:20.853Z,12.43
2018-12-03T14:23:51.589Z,9.03
2018-12-03T14:26:20.502Z,5.60
2018-12-03T14:28:48.900Z,6.00
2018-12-03T14:31:17.299Z,5.77
2018-12-03T14:33:45.610Z,13.67
2018-12-03T14:36:14.027Z,13.23
2018-12-03T14:38:42.976Z,6.10
2018-12-03T14:41:12.038Z,8.00
2018-12-03T14:43:40.352Z,5.10
2018-12-03T14:46:08.805Z,4.90
2018-12-03T14:48:37.260Z,4.27
2018-12-03T14:51:05.724Z,3.60
2018-12-03T14:53:34.588Z,4.73
2018-12-03T14:56:03.045Z,5.60
2018-12-03T14:58:31.414Z,4.77
2018-12-03T15:01:00.001Z,4.73
2018-12-03T15:03:28.702Z,4.80
2018-12-03T15:05:57.793Z,4.67
2018-12-03T15:08:26.236Z,4.77
2018-12-03T15:10:54.685Z,5.40
2018-12-03T15:13:23.373Z,5.03
2018-12-03T15:15:59.924Z,5.57
2018-12-03T15:18:28.479Z,4.63
2018-12-03T15:20:58.043Z,4.53
2018-12-03T15:23:26.608Z,4.33
2018-12-03T15:25:54.972Z,4.77
2018-12-03T15:28:23.217Z,4.60
2018-12-03T15:30:51.605Z,4.73
2018-12-03T15:33:20.004Z,4.80
2018-12-03T15:35:48.553Z,5.03
2018-12-03T15:38:16.868Z,5.30
2018-12-03T15:40:45.248Z,5.17
2018-12-03T15:43:16.446Z,5.70
2018-12-03T15:45:45.054Z,5.27
2018-12-03T15:48:13.542Z,5.47
2018-12-03T15:50:42.248Z,5.33
2018-12-03T15:53:10.630Z,5.80
2018-12-03T15:55:39.180Z,5.90
2018-12-03T15:58:08.275Z,5.30
2018-12-03T16:00:36.574Z,5.50
2018-12-03T16:03:05.246Z,6.43
2018-12-03T16:05:33.566Z,23.20
2018-12-03T16:08:01.945Z,9.90
2018-12-03T16:10:30.629Z,7.67
2018-12-03T16:12:59.091Z,6.80
2018-12-03T16:15:27.519Z,5.90
2018-12-03T16:17:56.556Z,5.70
2018-12-03T16:20:25.971Z,5.90
2018-12-03T16:22:54.675Z,6.10
2018-12-03T16:25:23.236Z,6.00
2018-12-03T16:27:51.899Z,5.73
2018-12-03T16:30:22.238Z,5.20
2018-12-03T16:32:50.885Z,5.93
2018-12-03T16:35:19.472Z,5.97
2018-12-03T16:37:47.883Z,5.57
2018-12-03T16:40:16.381Z,5.90
2018-12-03T16:42:45.728Z,5.50
2018-12-03T16:45:14.348Z,5.67
2018-12-03T16:47:42.815Z,6.13
2018-12-03T16:50:11.498Z,5.43
2018-12-03T16:52:40.418Z,6.37
2018-12-03T16:55:08.763Z,6.37
2018-12-03T16:57:37.198Z,7.63
2018-12-03T17:00:11.822Z,7.40
2018-12-03T17:02:40.357Z,6.87
2018-12-03T17:05:13.877Z,6.33
2018-12-03T17:07:42.745Z,6.53
2018-12-03T17:10:14.333Z,6.00
2018-12-03T17:12:43.093Z,6.47
2018-12-03T17:15:11.575Z,6.20
2018-12-03T17:17:40.578Z,5.67
2018-12-03T17:20:14.544Z,5.70
2018-12-03T17:22:53.448Z,6.17
2018-12-03T17:25:27.019Z,6.23
2018-12-03T17:27:55.578Z,5.73
2018-12-03T17:30:25.706Z,6.03
2018-12-03T17:32:54.101Z,6.97
2018-12-03T17:35:22.577Z,7.10
2018-12-03T17:37:52.337Z,7.03
2018-12-03T17:40:27.660Z,6.93
2018-12-03T17:42:56.238Z,7.43
2018-12-03T17:45:31.436Z,7.07
2018-12-03T17:48:00.231Z,6.97
2018-12-03T17:50:28.549Z,7.10
2018-12-03T17:52:57.023Z,6.70
2018-12-03T17:55:25.497Z,7.20
2018-12-03T17:57:53.973Z,6.87
2018-12-03T18:00:22.637Z,6.97
2018-12-03T18:02:51.246Z,7.13
2018-12-03T18:05:19.835Z,6.83
2018-12-03T18:07:48.287Z,7.20
2018-12-03T18:10:16.736Z,7.30
2018-12-03T18:12:45.541Z,6.93
2018-12-03T18:15:14.151Z,8.00
2018-12-03T18:17:42.744Z,7.80
2018-12-03T18:20:11.265Z,6.83
2018-12-03T18:22:39.684Z,6.90
2018-12-03T18:25:08.164Z,7.37
2018-12-03T18:27:36.527Z,6.93
2018-12-03T18:30:06.984Z,7.63
2018-12-03T18:32:35.327Z,7.33
2018-12-03T18:35:03.757Z,7.50
2018-12-03T18:37:32.129Z,7.27
2018-12-03T18:40:01.052Z,7.30
2018-12-03T18:42:29.346Z,8.30
2018-12-03T18:44:57.620Z,8.73
2018-12-03T18:47:26.017Z,56.93
2018-12-03T18:49:58.016Z,30.10
2018-12-03T18:52:26.511Z,16.13
2018-12-03T18:54:54.881Z,9.07
2018-12-03T18:57:23.403Z,7.40
2018-12-03T18:59:51.868Z,6.63
2018-12-03T19:02:20.216Z,8.20
2018-12-03T19:04:48.632Z,6.60
2018-12-03T19:07:17.121Z,6.93
2018-12-03T19:09:45.628Z,7.70
2018-12-03T19:12:14.150Z,7.93
2018-12-03T19:14:42.784Z,7.23
2018-12-03T19:17:11.209Z,7.07
2018-12-03T19:19:39.571Z,6.90
2018-12-03T19:22:08.049Z,7.00
2018-12-03T19:24:36.696Z,7.53
2018-12-03T19:27:05.271Z,7.10
2018-12-03T19:29:38.823Z,7.30
2018-12-03T19:32:02.312Z,7.50
2018-12-03T19:34:30.901Z,7.43
2018-12-03T19:37:00.402Z,6.80
2018-12-03T19:39:29.284Z,32.03
2018-12-03T19:41:57.720Z,33.67
2018-12-03T19:44:26.060Z,12.30
2018-12-03T19:46:54.615Z,8.77
2018-12-03T19:49:23.215Z,7.70
2018-12-03T19:51:51.745Z,7.17
2018-12-03T19:54:20.778Z,6.70
2018-12-03T19:56:49.571Z,6.30
2018-12-03T19:59:18.704Z,6.73
2018-12-03T20:01:47.257Z,6.67
2018-12-03T20:04:34.814Z,7.70
2018-12-03T20:07:04.568Z,7.30
2018-12-03T20:09:33.411Z,6.87
2018-12-03T20:12:02.019Z,7.03
2018-12-03T20:14:30.395Z,7.37
2018-12-03T20:16:59.843Z,6.90
2018-12-03T20:19:28.344Z,6.93
2018-12-03T20:21:56.918Z,7.27
2018-12-03T20:24:27.505Z,6.13
2018-12-03T20:27:05.585Z,7.57
2018-12-03T20:29:45.110Z,6.97
2018-12-03T20:32:52.918Z,5.93
2018-12-03T20:35:26.210Z,7.13
2018-12-03T20:38:05.708Z,6.20
2018-12-03T20:40:45.683Z,6.57
2018-12-03T20:43:18.464Z,8.00
2018-12-03T20:47:55.279Z,11.87
2018-12-03T20:50:47.234Z,19.37
2018-12-03T20:53:19.388Z,12.37
2018-12-03T20:55:48.605Z,18.47
2018-12-03T20:58:17.121Z,10.73
2018-12-03T21:00:45.616Z,9.33
2018-12-03T21:03:14.096Z,13.93
2018-12-03T21:05:42.709Z,11.23
2018-12-03T21:08:11.163Z,7.77
2018-12-03T21:10:39.546Z,7.40
2018-12-03T21:13:08.122Z,6.07
2018-12-03T21:15:37.233Z,6.67
2018-12-03T21:18:05.768Z,6.30
2018-12-03T21:27:36.145Z,6.20
2018-12-03T21:30:05.162Z,6.20
2018-12-03T21:32:34.387Z,5.87
2018-12-03T21:35:03.500Z,5.67
2018-12-03T21:37:32.526Z,5.67
2018-12-03T21:40:00.962Z,5.63
2018-12-03T21:43:03.161Z,20.13
2018-12-03T21:45:31.842Z,9.80
2018-12-03T21:48:00.182Z,6.93
2018-12-03T21:50:28.682Z,5.40
2018-12-03T21:52:57.350Z,5.43
2018-12-03T21:55:32.539Z,5.10
2018-12-03T21:58:01.225Z,5.20
2018-12-03T22:00:29.824Z,5.27
2018-12-03T22:02:58.396Z,5.23
2018-12-03T22:05:28.173Z,5.30
2018-12-03T22:07:56.843Z,5.00
2018-12-03T22:10:25.552Z,5.77
2018-12-03T22:12:53.967Z,5.20
2018-12-03T22:15:22.492Z,4.77
2018-12-03T22:17:50.973Z,5.47
2018-12-03T22:20:19.284Z,5.27
2018-12-03T22:22:47.766Z,4.37
2018-12-03T22:25:16.492Z,5.50
2018-12-03T22:27:45.011Z,5.23
2018-12-03T22:30:13.513Z,4.37
2018-12-03T22:32:41.979Z,4.90
2018-12-03T22:35:10.353Z,5.27
2018-12-03T22:37:38.792Z,4.63
2018-12-03T22:40:07.230Z,5.73
2018-12-03T22:42:35.495Z,5.07
2018-12-03T22:45:07.371Z,5.37
2018-12-03T22:47:35.701Z,5.73
2018-12-03T22:50:05.295Z,4.83
2018-12-03T22:52:42.036Z,6.07
2018-12-03T22:55:11.432Z,4.70
2018-12-03T22:57:39.879Z,4.87
2018-12-03T23:00:20.855Z,5.30
2018-12-03T23:02:49.678Z,4.90
2018-12-03T23:05:20.061Z,4.93
2018-12-03T23:07:50.344Z,5.10
2018-12-03T23:10:18.994Z,4.93
2018-12-03T23:12:47.369Z,4.90
2018-12-03T23:15:15.950Z,4.60
2018-12-03T23:17:44.252Z,4.47
2018-12-03T23:20:12.524Z,4.20
2018-12-03T23:22:40.895Z,4.30
2018-12-03T23:25:09.426Z,4.10
2018-12-03T23:27:37.765Z,5.20
2018-12-03T23:30:07.822Z,5.40
2018-12-03T23:32:36.178Z,5.33
2018-12-03T23:35:05.438Z,4.67
2018-12-03T23:37:33.943Z,4.37
2018-12-03T23:40:02.424Z,5.03
2018-12-03T23:42:30.697Z,4.27
2018-12-03T23:44:59.036Z,5.17
2018-12-03T23:47:27.381Z,4.40
2018-12-03T23:49:58.421Z,4.23
2018-12-03T23:52:26.777Z,4.57
2018-12-03T23:54:55.280Z,4.57
2018-12-03T23:57:23.742Z,4.40
2018-12-03T23:59:52.278Z,4.20
